Terminal Aerodrome Forecast
Issued by NWS

Home | Current Version | Previous Version | Graphics & Text | Print | Product List | Glossary On
Versions: 1 2 3 4 5 6 7 8 9 10 11 12 13 14 15
000
FTUS43 KMPX 140520
TAFRNH
TAF
KRNH 140520Z 1406/1506 15003KT P6SM -SHRA SCT020 BKN040
      TEMPO 1406/1410 4SM SHRA BKN020
     FM141000 12004KT P6SM -SHRA SCT015 BKN025
     FM141200 12005KT 2SM BR OVC007
     FM141600 13005KT 6SM BR OVC007
     FM141900 12004KT P6SM VCSH OVC015
     FM150000 03003KT P6SM OVC050=

USA.gov is the U.S. government's official web portal to all federal, state and local government web resources and services.